createdAt,value
2023-04-06T00:04:43.296Z,42.80
2023-04-06T00:14:47.463Z,42.00
2023-04-06T00:19:49.263Z,43.20
2023-04-06T04:07:11.557Z,46.30
2023-04-06T04:12:13.648Z,38.30
2023-04-06T04:17:15.759Z,45.90
2023-04-06T04:22:17.602Z,47.50
2023-04-06T04:27:19.384Z,47.80
2023-04-06T04:32:24.101Z,40.70
2023-04-06T04:37:26.536Z,38.80
2023-04-06T04:42:30.481Z,41.80
2023-04-06T04:47:33.607Z,44.10
2023-04-06T04:52:36.014Z,44.00
2023-04-06T04:58:03.809Z,45.00
2023-04-06T05:03:26.066Z,39.60
2023-04-06T05:08:32.939Z,40.20
2023-04-06T05:13:35.952Z,38.90
2023-04-06T05:18:42.636Z,46.40
2023-04-06T05:23:45.081Z,47.80
2023-04-06T05:28:47.098Z,46.50
2023-04-06T05:33:49.547Z,42.80
2023-04-06T05:38:58.179Z,41.50
2023-04-06T05:44:29.167Z,38.90
2023-04-06T05:49:38.062Z,39.70
2023-04-06T05:54:42.127Z,37.90
2023-04-06T05:59:44.075Z,36.30
2023-04-06T06:04:47.126Z,33.30
2023-04-06T06:09:49.282Z,36.50
2023-04-06T06:15:01.762Z,37.20
2023-04-06T06:20:04.783Z,35.50
2023-04-06T06:25:06.964Z,34.90
2023-04-06T06:30:11.802Z,38.70
2023-04-06T06:35:16.102Z,34.70
2023-04-06T06:40:19.017Z,37.30
2023-04-06T06:45:22.681Z,35.80
2023-04-06T06:50:24.966Z,31.00
2023-04-06T06:55:27.933Z,32.10
2023-04-06T07:00:29.744Z,28.00
2023-04-06T07:05:32.445Z,24.40
2023-04-06T07:10:34.465Z,18.70
2023-04-06T07:15:36.157Z,18.70
2023-04-06T07:25:40.035Z,16.80
2023-04-06T07:30:41.733Z,16.50
2023-04-06T07:35:44.614Z,19.70
2023-04-06T07:40:47.333Z,19.00
2023-04-06T07:45:49.575Z,16.80
2023-04-06T07:50:52.116Z,18.10
2023-04-06T07:55:54.800Z,18.00
2023-04-06T08:00:56.605Z,16.80
2023-04-06T08:05:58.446Z,11.90
2023-04-06T08:11:02.038Z,11.20
2023-04-06T08:16:04.785Z,10.30
2023-04-06T08:21:06.576Z,9.60
2023-04-06T08:26:08.381Z,11.40
2023-04-06T08:31:10.425Z,10.40
2023-04-06T08:36:14.153Z,10.40
2023-04-06T08:41:20.157Z,9.50
2023-04-06T08:46:22.008Z,8.90
2023-04-06T08:51:30.121Z,8.20
2023-04-06T08:56:32.090Z,9.30
2023-04-06T09:01:39.664Z,9.20
2023-04-06T09:06:42.060Z,9.10
2023-04-06T09:11:47.382Z,9.10
2023-04-06T09:16:49.145Z,9.30
2023-04-06T09:21:50.932Z,10.10
2023-04-06T09:26:52.647Z,10.10
2023-04-06T09:32:06.378Z,10.30
2023-04-06T09:37:19.194Z,8.70
2023-04-06T09:42:26.683Z,9.00
2023-04-06T09:47:29.908Z,8.30
2023-04-06T09:52:41.487Z,7.60
2023-04-06T09:57:53.883Z,8.70
2023-04-06T10:02:59.382Z,9.70
2023-04-06T10:08:07.319Z,8.40
2023-04-06T10:13:11.372Z,9.20
2023-04-06T10:18:14.128Z,8.50
2023-04-06T10:23:35.901Z,9.30
2023-04-06T10:28:37.859Z,9.70
2023-04-06T10:33:39.732Z,9.30
2023-04-06T10:38:42.997Z,7.80
2023-04-06T10:43:45.896Z,11.20
2023-04-06T10:48:51.067Z,9.70
2023-04-06T10:53:54.869Z,11.40
2023-04-06T10:58:59.659Z,9.20
2023-04-06T11:04:01.694Z,10.60
2023-04-06T11:09:04.936Z,10.10
2023-04-06T11:14:06.605Z,9.90
2023-04-06T11:19:08.842Z,9.00
2023-04-06T11:24:13.345Z,9.90
2023-04-06T11:29:18.325Z,9.20
2023-04-06T11:34:22.176Z,8.20
2023-04-06T11:39:28.497Z,8.80
2023-04-06T11:44:32.519Z,8.00
2023-04-06T11:49:38.332Z,6.50
2023-04-06T11:54:40.303Z,6.50
2023-04-06T11:59:42.034Z,5.60
2023-04-06T12:04:43.781Z,5.90
2023-04-06T12:09:45.760Z,5.60
2023-04-06T12:14:47.435Z,5.20
2023-04-06T12:19:49.064Z,5.50
2023-04-06T12:24:50.855Z,4.00
2023-04-06T12:29:52.637Z,5.60
2023-04-06T12:34:54.665Z,6.20
2023-04-06T12:39:56.597Z,5.60
2023-04-06T12:44:58.372Z,5.60
2023-04-06T12:50:00.636Z,8.40
2023-04-06T12:55:07.045Z,6.40
2023-04-06T13:00:09.981Z,7.00
2023-04-06T13:05:12.040Z,6.50
2023-04-06T13:10:13.764Z,6.80
2023-04-06T13:15:16.159Z,7.90
2023-04-06T13:20:18.644Z,9.10
2023-04-06T13:25:21.104Z,8.00
2023-04-06T13:30:24.005Z,9.10
2023-04-06T13:35:25.981Z,9.70
2023-04-06T13:40:27.675Z,8.60
2023-04-06T13:45:29.493Z,8.60
2023-04-06T13:50:31.551Z,5.80
2023-04-06T13:55:33.318Z,7.40
2023-04-06T14:00:35.994Z,6.20
2023-04-06T14:05:37.796Z,8.00
2023-04-06T14:10:45.753Z,8.10
2023-04-06T14:15:48.763Z,8.20
2023-04-06T14:20:57.208Z,8.60
2023-04-06T14:26:06.475Z,8.20
2023-04-06T14:31:13.136Z,7.80
2023-04-06T14:36:14.985Z,8.10
2023-04-06T14:46:19.983Z,8.10
2023-04-06T14:51:22.316Z,7.60
2023-04-06T14:56:24.800Z,9.00
2023-04-06T15:01:26.563Z,9.60
2023-04-06T15:06:28.330Z,11.70
2023-04-06T15:11:29.978Z,10.90
2023-04-06T15:21:36.163Z,10.10
2023-04-06T15:26:38.063Z,11.00
2023-04-06T15:31:41.023Z,11.00
2023-04-06T15:36:44.590Z,10.90
2023-04-06T15:41:46.323Z,10.30
2023-04-06T15:51:51.669Z,10.50
2023-04-06T15:56:53.456Z,11.40
2023-04-06T16:11:58.580Z,13.00
2023-04-06T16:22:02.642Z,13.00
2023-04-06T16:27:04.971Z,13.80
2023-04-06T16:32:06.977Z,12.20
2023-04-06T16:37:08.880Z,11.70
2023-04-06T16:42:10.886Z,12.60
2023-04-06T16:47:12.587Z,14.70
2023-04-06T16:52:14.426Z,13.50
2023-04-06T16:57:16.681Z,12.70
2023-04-06T17:02:18.481Z,13.50
2023-04-06T17:07:25.530Z,12.80
2023-04-06T17:12:27.300Z,13.70
2023-04-06T17:17:29.124Z,12.60
2023-04-06T17:22:31.401Z,13.00
2023-04-06T17:27:33.678Z,13.40
2023-04-06T17:32:35.738Z,14.20
2023-04-06T17:37:37.968Z,13.70
2023-04-06T17:42:39.662Z,15.50
2023-04-06T17:57:48.005Z,15.40
2023-04-06T18:02:54.406Z,14.80
2023-04-06T18:07:57.101Z,16.70
2023-04-06T18:13:01.378Z,16.40
2023-04-06T18:18:03.289Z,17.50
2023-04-06T18:23:05.114Z,15.60
2023-04-06T18:33:09.264Z,16.00
2023-04-06T18:43:13.083Z,16.90
2023-04-06T18:48:14.819Z,20.40
2023-04-06T18:53:16.767Z,16.90
2023-04-06T18:58:18.526Z,18.50
2023-04-06T19:03:22.314Z,19.40
2023-04-06T19:08:24.285Z,17.70
2023-04-06T19:13:28.682Z,16.40
2023-04-06T19:18:30.823Z,19.30
2023-04-06T19:23:33.950Z,18.30
2023-04-06T19:28:36.868Z,22.00
2023-04-06T19:33:39.359Z,20.80
2023-04-06T19:38:41.423Z,19.30
2023-04-06T19:43:43.360Z,17.30
2023-04-06T19:48:45.200Z,20.60
2023-04-06T19:53:47.939Z,21.20
2023-04-06T19:58:49.693Z,22.50
2023-04-06T20:03:51.660Z,22.00
2023-04-06T20:08:54.711Z,20.10
2023-04-06T20:13:56.542Z,27.60
2023-04-06T20:24:00.056Z,28.50
2023-04-06T20:29:01.758Z,26.10
2023-04-06T20:39:05.196Z,22.70
2023-04-06T20:44:07.159Z,23.70
2023-04-06T20:49:08.834Z,23.70
2023-04-06T20:54:10.705Z,23.70
2023-04-06T20:59:12.513Z,26.50
2023-04-06T21:04:14.350Z,24.60
2023-04-06T21:09:20.013Z,27.20
2023-04-06T21:14:24.169Z,24.90
2023-04-06T21:19:29.460Z,25.50
2023-04-06T21:24:31.269Z,22.70
2023-04-06T21:29:33.228Z,24.90
2023-04-06T21:34:34.982Z,26.30
2023-04-06T21:39:37.806Z,25.60
2023-04-06T21:44:41.002Z,26.50
2023-04-06T21:49:42.644Z,25.60
2023-04-06T21:54:46.028Z,24.80
2023-04-06T22:39:45.902Z,26.70
2023-04-06T22:44:47.637Z,29.30
2023-04-06T22:54:50.926Z,28.00
2023-04-06T22:59:52.721Z,31.00
2023-04-06T23:04:54.407Z,29.30
2023-04-06T23:09:57.502Z,29.90
2023-04-06T23:15:09.536Z,31.30
2023-04-06T23:20:11.518Z,32.10
2023-04-06T23:25:13.332Z,30.30
2023-04-06T23:30:15.771Z,32.50
2023-04-06T23:35:17.956Z,32.10
2023-04-06T23:40:24.941Z,32.10
2023-04-06T23:45:27.557Z,33.40
2023-04-06T23:50:37.875Z,31.40
2023-04-06T23:55:39.608Z,31.90
